Time;durP1;ratioP1;P1;durP2;ratioP2;P2;SDS_P1;SDS_P2;PMS_P1;PMS_P2;Temp;Humidity;BMP_temperature;BMP_pressure;BME280_temperature;BME280_humidity;BME280_pressure;Samples;Min_cycle;Max_cycle;Signal;HPM_P1;HPM_P2
2022/04/26 03:38:25;;;;;;;;;;;23.50;39.30;;;;;;4944624;29;20321;-70
2022/04/26 03:40:52;;;;;;;;;;;23.50;39.30;;;;;;4946854;28;19930;-70
2022/04/26 03:43:18;;;;;;;;;;;23.50;39.20;;;;;;4945501;28;19970;-70
2022/04/26 03:45:45;;;;;;;;;;;23.50;39.20;;;;;;4941436;29;19984;-71
2022/04/26 03:48:13;;;;;;;;;;;23.60;39.30;;;;;;4945806;28;19937;-71
2022/04/26 03:50:40;;;;;;;;;;;23.60;39.30;;;;;;4946200;29;19953;-70
2022/04/26 03:53:06;;;;;;;;;;;23.50;39.30;;;;;;4946349;28;19930;-71
2022/04/26 03:55:34;;;;;;;;;;;23.50;39.20;;;;;;4946531;28;19926;-71
2022/04/26 03:58:01;;;;;;;;;;;23.50;39.20;;;;;;4946771;28;19933;-71
2022/04/26 04:00:28;;;;;;;;;;;23.50;39.30;;;;;;4946210;29;20432;-71
2022/04/26 04:02:55;;;;;;;;;;;23.50;39.20;;;;;;4946041;29;20041;-71
2022/04/26 04:05:22;;;;;;;;;;;23.50;39.20;;;;;;4946075;29;19927;-70
2022/04/26 04:07:49;;;;;;;;;;;23.50;39.30;;;;;;4946394;28;20391;-71
2022/04/26 04:10:16;;;;;;;;;;;23.50;39.30;;;;;;4946433;28;19974;-71
2022/04/26 04:12:43;;;;;;;;;;;23.50;39.30;;;;;;4946267;29;20029;-71
2022/04/26 04:15:10;;;;;;;;;;;23.50;39.30;;;;;;4945874;28;19931;-71
2022/04/26 04:17:37;;;;;;;;;;;23.50;39.30;;;;;;4942170;29;19980;-70
2022/04/26 04:20:05;;;;;;;;;;;23.50;39.60;;;;;;4938431;29;19997;-71
2022/04/26 04:22:38;;;;;;;;;;;23.50;39.30;;;;;;4930762;29;19970;-71
2022/04/26 04:25:05;;;;;;;;;;;23.50;39.30;;;;;;4942349;28;19935;-71
2022/04/26 04:27:32;;;;;;;;;;;23.50;39.30;;;;;;4927474;29;19973;-70
2022/04/26 04:30:03;;;;;;;;;;;23.50;39.30;;;;;;4926754;29;19927;-70
2022/04/26 04:32:30;;;;;;;;;;;23.50;39.30;;;;;;4927169;29;19989;-70
2022/04/26 04:34:58;;;;;;;;;;;23.50;39.30;;;;;;4927007;29;19937;-70
2022/04/26 04:37:25;;;;;;;;;;;23.50;39.30;;;;;;4938438;28;19934;-70
2022/04/26 04:39:52;;;;;;;;;;;23.50;39.30;;;;;;4934991;28;20333;-70
2022/04/26 04:42:21;;;;;;;;;;;23.50;39.20;;;;;;4936885;29;20392;-70
2022/04/26 04:44:48;;;;;;;;;;;23.50;39.20;;;;;;4942296;29;20376;-70
2022/04/26 04:47:15;;;;;;;;;;;23.50;39.20;;;;;;4939224;28;20408;-70
2022/04/26 04:49:42;;;;;;;;;;;23.50;39.20;;;;;;4937429;29;19970;-70
2022/04/26 04:52:09;;;;;;;;;;;23.50;39.20;;;;;;4945448;29;20454;-71
2022/04/26 04:54:36;;;;;;;;;;;23.50;39.20;;;;;;4949299;29;20283;-70
2022/04/26 04:57:04;;;;;;;;;;;23.60;39.20;;;;;;4946437;28;20429;-70
2022/04/26 04:59:31;;;;;;;;;;;23.60;39.20;;;;;;4950286;28;19977;-70
2022/04/26 05:01:59;;;;;;;;;;;23.60;39.20;;;;;;4933131;29;19962;-71
2022/04/26 05:04:26;;;;;;;;;;;23.60;39.20;;;;;;4950601;28;19940;-70
2022/04/26 05:06:53;;;;;;;;;;;23.60;39.20;;;;;;4950837;28;19931;-70
2022/04/26 05:09:20;;;;;;;;;;;23.60;39.10;;;;;;4944332;28;19996;-70
2022/04/26 05:11:46;;;;;;;;;;;23.60;39.10;;;;;;4931678;28;19930;-70
2022/04/26 05:14:13;;;;;;;;;;;23.60;39.10;;;;;;4931948;28;20005;-71
2022/04/26 05:16:40;;;;;;;;;;;23.70;39.10;;;;;;4931658;29;19931;-70
2022/04/26 05:19:08;;;;;;;;;;;23.70;39.00;;;;;;4941621;28;20565;-70
2022/04/26 05:21:35;;;;;;;;;;;23.70;38.90;;;;;;4938010;28;19984;-70
2022/04/26 05:26:48;;;;;;;;;;;23.80;39.00;;;;;;4940835;28;19930;-70
2022/04/26 05:29:16;;;;;;;;;;;23.80;38.90;;;;;;4938836;29;20383;-69
2022/04/26 05:31:43;;;;;;;;;;;23.80;38.90;;;;;;4939071;29;19976;-75
2022/04/26 05:34:10;;;;;;;;;;;23.80;38.90;;;;;;4935393;28;20282;-71
2022/04/26 05:36:37;;;;;;;;;;;23.90;39.10;;;;;;4940394;29;20375;-74
2022/04/26 05:39:05;;;;;;;;;;;23.90;39.20;;;;;;4926884;28;19980;-70
2022/04/26 05:41:32;;;;;;;;;;;23.90;39.30;;;;;;4931719;28;20386;-70
2022/04/26 05:43:59;;;;;;;;;;;24.00;39.30;;;;;;4941733;28;19984;-72
2022/04/26 05:46:26;;;;;;;;;;;24.00;39.40;;;;;;4936306;28;19927;-73
2022/04/26 05:48:53;;;;;;;;;;;24.00;39.60;;;;;;4935707;28;19935;-74
2022/04/26 05:51:22;;;;;;;;;;;24.10;39.60;;;;;;4931037;28;19938;-71
2022/04/26 05:53:50;;;;;;;;;;;24.10;39.60;;;;;;4933289;28;20363;-69
2022/04/26 05:56:17;;;;;;;;;;;24.20;39.50;;;;;;4935321;28;20325;-69
2022/04/26 05:58:44;;;;;;;;;;;24.20;39.40;;;;;;4934172;28;19938;-70
2022/04/26 06:01:11;;;;;;;;;;;24.20;39.40;;;;;;4935432;28;19938;-73
2022/04/26 06:03:38;;;;;;;;;;;24.30;39.30;;;;;;4933074;28;20437;-76
2022/04/26 06:06:05;;;;;;;;;;;24.30;39.20;;;;;;4936515;29;19939;-77
2022/04/26 06:08:32;;;;;;;;;;;24.40;39.20;;;;;;4935841;28;20399;-76
2022/04/26 06:10:59;;;;;;;;;;;24.50;39.30;;;;;;4938832;28;19927;-68
2022/04/26 06:13:26;;;;;;;;;;;24.50;39.40;;;;;;4934996;28;20391;-74
2022/04/26 06:15:53;;;;;;;;;;;24.50;39.30;;;;;;4936780;28;19938;-74
2022/04/26 06:18:21;;;;;;;;;;;24.60;39.40;;;;;;4932315;28;20302;-73
2022/04/26 06:20:48;;;;;;;;;;;24.60;39.20;;;;;;4937304;28;20327;-71
2022/04/26 06:23:15;;;;;;;;;;;24.70;39.20;;;;;;4924742;28;19930;-72
2022/04/26 06:25:42;;;;;;;;;;;24.70;38.90;;;;;;4937604;28;19988;-73
2022/04/26 06:28:09;;;;;;;;;;;24.80;38.90;;;;;;4936117;28;19926;-74
2022/04/26 06:30:38;;;;;;;;;;;24.80;38.80;;;;;;4940550;28;20015;-71
2022/04/26 06:33:06;;;;;;;;;;;24.80;38.80;;;;;;4931326;28;19930;-73
2022/04/26 06:35:40;;;;;;;;;;;24.90;38.70;;;;;;4938481;29;20018;-72
2022/04/26 06:38:07;;;;;;;;;;;24.90;38.70;;;;;;4934596;28;19926;-73
2022/04/26 06:40:34;;;;;;;;;;;24.90;38.50;;;;;;4940219;28;19944;-72
2022/04/26 06:43:01;;;;;;;;;;;24.90;38.40;;;;;;4937064;28;19927;-73
2022/04/26 06:45:28;;;;;;;;;;;25.00;38.40;;;;;;4938883;28;19946;-72
2022/04/26 06:47:55;;;;;;;;;;;25.00;38.40;;;;;;4935669;28;19946;-71
2022/04/26 06:50:22;;;;;;;;;;;25.10;38.40;;;;;;4936139;28;19973;-72
2022/04/26 06:52:50;;;;;;;;;;;25.10;38.20;;;;;;4938246;28;20345;-75
2022/04/26 06:55:17;;;;;;;;;;;25.20;38.30;;;;;;4933485;28;19961;-66
2022/04/26 06:57:46;;;;;;;;;;;25.20;38.20;;;;;;4935975;28;20440;-72
2022/04/26 07:00:14;;;;;;;;;;;25.30;38.20;;;;;;4943897;28;19927;-73
2022/04/26 07:02:41;;;;;;;;;;;25.30;38.50;;;;;;4935644;28;20665;-74
2022/04/26 07:05:10;;;;;;;;;;;25.40;38.10;;;;;;4940026;28;19938;-73
2022/04/26 07:07:38;;;;;;;;;;;25.40;38.00;;;;;;4948441;28;19934;-77
2022/04/26 07:10:06;;;;;;;;;;;25.40;37.90;;;;;;4935679;28;19935;-69
2022/04/26 07:12:33;;;;;;;;;;;25.50;37.90;;;;;;4936229;28;20337;-72
2022/04/26 07:15:00;;;;;;;;;;;25.50;37.80;;;;;;4932881;28;20462;-71
2022/04/26 07:17:28;;;;;;;;;;;25.60;37.90;;;;;;4936354;28;19942;-71
2022/04/26 07:19:57;;;;;;;;;;;25.60;37.80;;;;;;4932495;28;19931;-72
2022/04/26 07:22:29;;;;;;;;;;;25.70;37.70;;;;;;4933250;28;20337;-75
2022/04/26 07:24:56;;;;;;;;;;;25.70;37.40;;;;;;4934783;28;19978;-75
2022/04/26 07:27:23;;;;;;;;;;;25.70;37.30;;;;;;4931592;28;19977;-74
2022/04/26 07:29:51;;;;;;;;;;;25.70;37.20;;;;;;4933454;28;19934;-68
2022/04/26 07:32:18;;;;;;;;;;;25.80;37.20;;;;;;4935567;28;19933;-72
2022/04/26 07:34:48;;;;;;;;;;;25.80;37.10;;;;;;4937273;28;20000;-74
2022/04/26 07:37:15;;;;;;;;;;;25.80;37.10;;;;;;4935066;29;19962;-75
2022/04/26 07:39:42;;;;;;;;;;;25.90;37.20;;;;;;4936638;28;19945;-77
2022/04/26 07:42:10;;;;;;;;;;;25.90;37.00;;;;;;4940385;28;19939;-76
2022/04/26 07:44:39;;;;;;;;;;;25.90;36.80;;;;;;4932713;29;20025;-74
2022/04/26 07:47:06;;;;;;;;;;;25.90;36.60;;;;;;4938011;28;20029;-75
2022/04/26 07:49:35;;;;;;;;;;;26.00;36.60;;;;;;4933545;28;20258;-79
2022/04/26 07:52:03;;;;;;;;;;;26.00;36.80;;;;;;4938112;28;20294;-73
2022/04/26 07:54:31;;;;;;;;;;;26.00;37.00;;;;;;4933926;28;19935;-74
2022/04/26 07:56:58;;;;;;;;;;;26.00;36.90;;;;;;4936442;28;20337;-78
2022/04/26 07:59:28;;;;;;;;;;;26.00;36.80;;;;;;4926470;28;19931;-74
2022/04/26 08:01:56;;;;;;;;;;;26.00;36.90;;;;;;4933050;28;20375;-74
2022/04/26 08:04:24;;;;;;;;;;;26.00;36.60;;;;;;4936296;28;19996;-73
2022/04/26 08:06:51;;;;;;;;;;;26.10;36.50;;;;;;4937553;28;19934;-73
2022/04/26 08:09:18;;;;;;;;;;;26.10;36.50;;;;;;4938805;28;19973;-76
2022/04/26 08:11:46;;;;;;;;;;;26.10;36.60;;;;;;4939210;28;19980;-76
2022/04/26 08:14:14;;;;;;;;;;;26.20;37.20;;;;;;4935455;28;19941;-67
2022/04/26 08:16:42;;;;;;;;;;;26.20;36.40;;;;;;4936748;28;20322;-70
2022/04/26 08:19:10;;;;;;;;;;;26.20;35.80;;;;;;4935404;28;19992;-71
2022/04/26 08:21:38;;;;;;;;;;;26.30;35.70;;;;;;4938703;28;19992;-79
2022/04/26 08:29:40;;;;;;;;;;;26.30;35.30;;;;;;4929313;28;19935;-71
2022/04/26 08:32:07;;;;;;;;;;;26.30;35.40;;;;;;4934943;28;19933;-66
2022/04/26 08:34:34;;;;;;;;;;;26.40;35.30;;;;;;4927696;28;20508;-67
2022/04/26 08:37:02;;;;;;;;;;;26.40;35.30;;;;;;4928613;28;19939;-68
2022/04/26 08:39:29;;;;;;;;;;;26.40;34.90;;;;;;4933628;28;20538;-66
2022/04/26 08:41:57;;;;;;;;;;;26.30;34.60;;;;;;4933778;28;19926;-70
2022/04/26 08:44:28;;;;;;;;;;;26.30;34.60;;;;;;4933504;28;19930;-68
2022/04/26 08:52:44;;;;;;;;;;;26.10;34.90;;;;;;4932276;28;19939;-66
2022/04/26 08:55:11;;;;;;;;;;;26.10;34.60;;;;;;4936123;28;19961;-67
2022/04/26 08:57:39;;;;;;;;;;;26.10;34.50;;;;;;4931462;29;20655;-70
2022/04/26 09:00:07;;;;;;;;;;;26.10;34.70;;;;;;4933460;29;20391;-69
2022/04/26 09:02:38;;;;;;;;;;;26.10;34.50;;;;;;4929986;28;19937;-68
2022/04/26 09:05:10;;;;;;;;;;;26.10;35.00;;;;;;4928788;28;19934;-66
2022/04/26 09:07:37;;;;;;;;;;;26.10;34.90;;;;;;4934921;28;19926;-67
2022/04/26 09:10:10;;;;;;;;;;;26.10;34.60;;;;;;4935860;28;19969;-68
2022/04/26 09:12:57;;;;;;;;;;;26.00;34.30;;;;;;4935490;28;19973;-68
2022/04/26 09:15:24;;;;;;;;;;;26.00;34.50;;;;;;4929484;28;19976;-69
2022/04/26 09:18:02;;;;;;;;;;;26.00;34.70;;;;;;4934815;28;19961;-69
2022/04/26 09:20:35;;;;;;;;;;;26.00;34.80;;;;;;4931033;28;20449;-68
2022/04/26 09:23:02;;;;;;;;;;;26.00;34.90;;;;;;4934227;28;19927;-67
2022/04/26 09:25:29;;;;;;;;;;;26.00;34.90;;;;;;4936715;28;19933;-68
2022/04/26 09:28:00;;;;;;;;;;;26.00;34.80;;;;;;4937726;28;19996;-68
2022/04/26 09:30:28;;;;;;;;;;;26.00;34.80;;;;;;4940939;28;19930;-67
2022/04/26 09:32:55;;;;;;;;;;;26.00;34.80;;;;;;4933455;28;19996;-65
2022/04/26 09:35:23;;;;;;;;;;;26.10;34.90;;;;;;4937924;28;19973;-67
2022/04/26 09:37:50;;;;;;;;;;;26.00;34.80;;;;;;4936291;28;19935;-66
2022/04/26 09:40:26;;;;;;;;;;;26.10;35.00;;;;;;4951643;28;19964;-67
2022/04/26 09:42:53;;;;;;;;;;;26.10;35.10;;;;;;4938457;28;19935;-72
2022/04/26 09:45:20;;;;;;;;;;;26.10;35.00;;;;;;4939394;29;19938;-71
2022/04/26 09:47:50;;;;;;;;;;;26.20;35.00;;;;;;4941452;29;19934;-68
2022/04/26 09:50:17;;;;;;;;;;;26.30;34.90;;;;;;4939299;29;19926;-68
2022/04/26 09:52:44;;;;;;;;;;;26.30;34.80;;;;;;4937968;28;19934;-67
2022/04/26 09:55:15;;;;;;;;;;;26.40;34.70;;;;;;4963706;28;19992;-67
2022/04/26 09:57:44;;;;;;;;;;;26.40;34.90;;;;;;4945479;28;20287;-69
2022/04/26 10:00:12;;;;;;;;;;;26.50;34.80;;;;;;4955870;28;19931;-68
2022/04/26 10:02:50;;;;;;;;;;;26.50;34.80;;;;;;4943828;29;20394;-68
2022/04/26 10:05:21;;;;;;;;;;;26.50;34.80;;;;;;4940624;29;20014;-68
2022/04/26 10:07:49;;;;;;;;;;;26.50;34.80;;;;;;4944285;28;19941;-70
2022/04/26 10:10:20;;;;;;;;;;;26.50;34.80;;;;;;4938973;29;19927;-68
2022/04/26 10:13:31;;;;;;;;;;;26.50;34.70;;;;;;4935536;28;21935;-69
2022/04/26 10:15:35;;;;;;;;;;;26.60;34.80;;;;;;4941065;29;19980;-66
2022/04/26 10:18:22;;;;;;;;;;;26.70;34.70;;;;;;4939742;28;20592;-69
2022/04/26 10:20:50;;;;;;;;;;;26.70;34.50;;;;;;4942601;28;19969;-70
2022/04/26 10:23:17;;;;;;;;;;;26.80;34.70;;;;;;4942427;29;19926;-71
2022/04/26 10:26:06;;;;;;;;;;;26.80;34.70;;;;;;4939945;28;19978;-72
2022/04/26 10:28:50;;;;;;;;;;;26.70;34.20;;;;;;4941798;29;19927;-72
2022/04/26 10:31:19;;;;;;;;;;;26.70;34.50;;;;;;4939360;29;19927;-74
2022/04/26 10:33:46;;;;;;;;;;;26.70;34.70;;;;;;4934533;28;20000;-75
2022/04/26 10:36:31;;;;;;;;;;;26.70;34.70;;;;;;4934285;29;19934;-75
2022/04/26 10:39:18;;;;;;;;;;;26.70;34.20;;;;;;4940831;28;19926;-74
2022/04/26 10:41:46;;;;;;;;;;;26.70;34.60;;;;;;4925521;28;20321;-72
2022/04/26 10:44:26;;;;;;;;;;;26.70;34.60;;;;;;4933690;28;19935;-74
2022/04/26 10:47:18;;;;;;;;;;;26.70;34.70;;;;;;4936185;29;19927;-71
2022/04/26 10:49:45;;;;;;;;;;;26.70;34.70;;;;;;4923498;28;19964;-70
2022/04/26 10:52:36;;;;;;;;;;;26.70;34.50;;;;;;4940514;28;19978;-73
2022/04/26 10:55:04;;;;;;;;;;;26.80;34.60;;;;;;4940880;28;19980;-73
2022/04/26 10:57:33;;;;;;;;;;;26.80;33.80;;;;;;4938793;28;19935;-73
2022/04/26 11:00:09;;;;;;;;;;;26.80;34.00;;;;;;4934646;28;19926;-73
2022/04/26 11:02:39;;;;;;;;;;;26.70;34.10;;;;;;4934499;28;19939;-71
2022/04/26 11:05:11;;;;;;;;;;;26.70;34.20;;;;;;4932989;28;19938;-67
2022/04/26 11:07:40;;;;;;;;;;;26.60;34.30;;;;;;4989093;28;19935;-70
2022/04/26 11:10:08;;;;;;;;;;;26.60;34.10;;;;;;4937628;28;19988;-72
2022/04/26 11:12:37;;;;;;;;;;;26.60;33.80;;;;;;4934539;28;19992;-72
2022/04/26 11:15:05;;;;;;;;;;;26.60;33.70;;;;;;4927467;28;20283;-72
2022/04/26 11:17:34;;;;;;;;;;;26.60;34.00;;;;;;4939427;28;20339;-69
2022/04/26 11:20:02;;;;;;;;;;;26.60;33.90;;;;;;4947468;28;19984;-73
2022/04/26 11:22:29;;;;;;;;;;;26.60;33.40;;;;;;4919482;28;19984;-71
2022/04/26 11:30:43;;;;;;;;;;;26.50;34.70;;;;;;4938510;29;20493;-71
2022/04/26 11:33:15;;;;;;;;;;;26.50;35.10;;;;;;4934874;29;19933;-68
2022/04/26 11:35:43;;;;;;;;;;;26.60;35.20;;;;;;4938270;28;20000;-72
2022/04/26 11:38:14;;;;;;;;;;;26.60;35.00;;;;;;4933959;28;19988;-72
2022/04/26 11:40:52;;;;;;;;;;;26.60;34.70;;;;;;4931896;28;19989;-71
2022/04/26 11:43:20;;;;;;;;;;;26.60;34.60;;;;;;4934131;29;19926;-72
2022/04/26 11:45:48;;;;;;;;;;;26.60;34.40;;;;;;4920373;28;19938;-68
2022/04/26 11:48:16;;;;;;;;;;;26.60;34.20;;;;;;4938741;28;19926;-66
2022/04/26 11:50:44;;;;;;;;;;;26.50;34.40;;;;;;4935200;28;19989;-68
2022/04/26 11:53:13;;;;;;;;;;;26.50;34.50;;;;;;4949247;28;19981;-66
2022/04/26 11:55:42;;;;;;;;;;;26.50;34.80;;;;;;4933636;28;19930;-66
2022/04/26 11:58:13;;;;;;;;;;;26.50;35.30;;;;;;4933811;28;20072;-67
2022/04/26 12:00:51;;;;;;;;;;;26.50;34.80;;;;;;4934599;28;19935;-67
2022/04/26 12:03:19;;;;;;;;;;;26.40;34.50;;;;;;4939619;28;19954;-68
2022/04/26 12:05:49;;;;;;;;;;;26.30;34.40;;;;;;4933849;28;19962;-66
2022/04/26 12:08:16;;;;;;;;;;;26.20;34.50;;;;;;4935152;28;19931;-71
2022/04/26 12:10:46;;;;;;;;;;;26.20;35.20;;;;;;4929168;28;20503;-75
2022/04/26 12:13:14;;;;;;;;;;;26.20;35.40;;;;;;4933408;28;19970;-69
2022/04/26 12:15:42;;;;;;;;;;;26.30;35.60;;;;;;4935850;28;20033;-65
2022/04/26 12:18:12;;;;;;;;;;;26.30;35.80;;;;;;4937184;28;19927;-64
2022/04/26 12:20:57;;;;;;;;;;;26.40;35.00;;;;;;4935017;29;19939;-66
2022/04/26 12:23:26;;;;;;;;;;;26.40;34.90;;;;;;4931905;28;19976;-69
2022/04/26 12:25:54;;;;;;;;;;;26.50;35.40;;;;;;4933830;28;19996;-65
2022/04/26 12:28:21;;;;;;;;;;;26.50;35.50;;;;;;4933720;28;19933;-68
2022/04/26 12:30:48;;;;;;;;;;;26.60;35.50;;;;;;4935844;28;20351;-74
2022/04/26 12:33:26;;;;;;;;;;;26.60;35.20;;;;;;4938196;28;19973;-70
2022/04/26 12:35:57;;;;;;;;;;;26.70;34.80;;;;;;4932516;28;20006;-68
2022/04/26 12:38:25;;;;;;;;;;;26.70;34.60;;;;;;4930678;28;19935;-67
2022/04/26 12:41:02;;;;;;;;;;;26.80;34.40;;;;;;4930470;28;19980;-68
2022/04/26 12:43:29;;;;;;;;;;;26.80;34.00;;;;;;4927496;28;19934;-67
2022/04/26 12:46:02;;;;;;;;;;;26.70;34.10;;;;;;4920981;28;19930;-69
2022/04/26 12:51:21;;;;;;;;;;;26.70;34.20;;;;;;4922003;28;19930;-68
2022/04/26 12:54:06;;;;;;;;;;;26.70;34.60;;;;;;4933509;28;19970;-69
2022/04/26 12:56:33;;;;;;;;;;;26.80;34.50;;;;;;4911984;28;19961;-78
2022/04/26 12:59:00;;;;;;;;;;;26.80;34.70;;;;;;4924834;28;19966;-70
2022/04/26 13:01:29;;;;;;;;;;;26.80;34.70;;;;;;4932596;28;19934;-71
2022/04/26 13:03:58;;;;;;;;;;;26.80;35.00;;;;;;4931977;28;19934;-67
2022/04/26 13:06:26;;;;;;;;;;;26.90;35.10;;;;;;4933330;28;19935;-69
2022/04/26 13:09:13;;;;;;;;;;;26.90;35.10;;;;;;4928988;28;20016;-65
2022/04/26 13:11:42;;;;;;;;;;;27.00;35.00;;;;;;4927989;28;20016;-64
2022/04/26 13:14:09;;;;;;;;;;;27.00;34.70;;;;;;4932779;28;19953;-64
2022/04/26 13:16:57;;;;;;;;;;;27.00;34.80;;;;;;4938991;28;20396;-63
2022/04/26 13:19:24;;;;;;;;;;;27.00;35.00;;;;;;4922756;28;19973;-64
2022/04/26 13:21:51;;;;;;;;;;;27.00;34.80;;;;;;4933989;28;19930;-66
2022/04/26 13:24:25;;;;;;;;;;;27.00;34.90;;;;;;4937750;28;20387;-66
2022/04/26 13:26:52;;;;;;;;;;;27.00;35.10;;;;;;4929268;28;20457;-64
2022/04/26 13:29:19;;;;;;;;;;;27.00;35.10;;;;;;4934054;28;19977;-70
2022/04/26 13:31:46;;;;;;;;;;;27.10;35.30;;;;;;4938543;28;20548;-65
2022/04/26 13:34:13;;;;;;;;;;;27.10;35.20;;;;;;4936035;29;19930;-65
2022/04/26 13:37:01;;;;;;;;;;;27.10;35.20;;;;;;4937042;28;19941;-67
2022/04/26 13:39:28;;;;;;;;;;;27.10;35.20;;;;;;4940444;28;20387;-67
2022/04/26 13:41:55;;;;;;;;;;;27.10;35.00;;;;;;4934448;28;19985;-68
2022/04/26 13:44:22;;;;;;;;;;;27.10;34.80;;;;;;4933161;28;19961;-66
2022/04/26 13:46:49;;;;;;;;;;;27.20;34.80;;;;;;4935312;28;20375;-68
2022/04/26 13:49:17;;;;;;;;;;;27.20;35.00;;;;;;4937538;29;19930;-67
2022/04/26 13:51:44;;;;;;;;;;;27.20;35.00;;;;;;4937362;28;19935;-71
2022/04/26 13:54:11;;;;;;;;;;;27.20;35.00;;;;;;4937884;28;20013;-70
2022/04/26 13:56:39;;;;;;;;;;;27.20;35.40;;;;;;4939895;28;20009;-68
2022/04/26 13:59:06;;;;;;;;;;;27.30;35.00;;;;;;4938389;28;19934;-71
2022/04/26 14:01:33;;;;;;;;;;;27.30;35.00;;;;;;4937749;28;19930;-71
2022/04/26 14:04:00;;;;;;;;;;;27.30;34.90;;;;;;4942611;28;20386;-73
2022/04/26 14:06:27;;;;;;;;;;;27.30;35.00;;;;;;4938899;29;19935;-66
2022/04/26 14:08:54;;;;;;;;;;;27.30;35.00;;;;;;4936663;28;19930;-71
2022/04/26 14:11:21;;;;;;;;;;;27.20;35.00;;;;;;4941099;28;19927;-68
2022/04/26 14:22:33;;;;;;;;;;;27.00;35.40;;;;;;4938765;29;19935;-68
2022/04/26 14:25:03;;;;;;;;;;;27.00;35.30;;;;;;4941153;29;20374;-72
2022/04/26 14:27:31;;;;;;;;;;;27.00;35.30;;;;;;4937734;28;19934;-64
2022/04/26 14:29:58;;;;;;;;;;;27.00;35.00;;;;;;4938633;28;19930;-67
2022/04/26 14:32:25;;;;;;;;;;;27.10;35.20;;;;;;4938991;29;19931;-71
2022/04/26 14:34:53;;;;;;;;;;;27.10;35.30;;;;;;4939224;28;20576;-75
2022/04/26 14:37:22;;;;;;;;;;;27.10;35.30;;;;;;4939726;28;19941;-70
2022/04/26 14:39:50;;;;;;;;;;;27.10;35.10;;;;;;4946147;29;19927;-71
2022/04/26 14:42:17;;;;;;;;;;;27.00;35.00;;;;;;4936214;29;19927;-71
2022/04/26 14:44:45;;;;;;;;;;;27.00;35.00;;;;;;4937484;28;20267;-71
2022/04/26 14:47:13;;;;;;;;;;;27.00;35.00;;;;;;4942765;28;19934;-74
2022/04/26 14:49:40;;;;;;;;;;;27.00;35.00;;;;;;4941383;29;19965;-70
2022/04/26 14:52:07;;;;;;;;;;;27.00;35.00;;;;;;4942835;29;20391;-74
2022/04/26 14:54:55;;;;;;;;;;;26.90;34.90;;;;;;4948240;28;20005;-74
2022/04/26 14:57:23;;;;;;;;;;;26.90;34.90;;;;;;4926676;29;19931;-74
2022/04/26 14:59:51;;;;;;;;;;;26.90;35.10;;;;;;4930663;29;19931;-76
2022/04/26 15:02:18;;;;;;;;;;;26.80;35.50;;;;;;4943248;29;19926;-76
2022/04/26 15:04:46;;;;;;;;;;;26.80;35.60;;;;;;4949005;28;19980;-76
2022/04/26 15:07:16;;;;;;;;;;;26.80;35.60;;;;;;4946308;29;19927;-77
2022/04/26 15:09:44;;;;;;;;;;;26.80;35.50;;;;;;4930576;29;20371;-75
2022/04/26 15:17:49;;;;;;;;;;;26.70;35.70;;;;;;4928136;29;19973;-76
2022/04/26 15:20:18;;;;;;;;;;;26.70;36.10;;;;;;4923477;29;20020;-75
2022/04/26 15:22:46;;;;;;;;;;;26.60;35.40;;;;;;4928260;29;19930;-75
2022/04/26 15:25:13;;;;;;;;;;;26.60;35.40;;;;;;4927637;29;19927;-74
2022/04/26 15:27:40;;;;;;;;;;;26.70;35.50;;;;;;4927712;29;19961;-74
2022/04/26 15:30:08;;;;;;;;;;;26.70;35.60;;;;;;4927764;28;20429;-76
2022/04/26 15:32:36;;;;;;;;;;;26.70;36.10;;;;;;4928316;28;20282;-75
2022/04/26 15:35:05;;;;;;;;;;;26.70;37.10;;;;;;4928313;29;19981;-74
2022/04/26 15:37:34;;;;;;;;;;;26.70;36.80;;;;;;4928754;29;20231;-79
2022/04/26 15:40:01;;;;;;;;;;;26.70;36.30;;;;;;4928196;28;19941;-75
2022/04/26 15:42:31;;;;;;;;;;;26.70;36.00;;;;;;4927385;28;19935;-75
2022/04/26 15:44:58;;;;;;;;;;;26.70;35.80;;;;;;4927899;28;20379;-76
2022/04/26 15:47:25;;;;;;;;;;;26.70;35.90;;;;;;4927895;28;20387;-78
2022/04/26 15:49:52;;;;;;;;;;;26.70;36.90;;;;;;4928158;28;19931;-77
2022/04/26 15:52:19;;;;;;;;;;;26.70;37.80;;;;;;4922949;29;19934;-73
2022/04/26 15:54:46;;;;;;;;;;;26.70;37.60;;;;;;4928254;28;19927;-78
2022/04/26 15:57:13;;;;;;;;;;;26.70;36.80;;;;;;4928580;29;19927;-74
2022/04/26 15:59:40;;;;;;;;;;;26.70;36.30;;;;;;4927962;29;20440;-76
2022/04/26 16:02:07;;;;;;;;;;;26.70;36.00;;;;;;4926129;29;19927;-73
2022/04/26 16:04:35;;;;;;;;;;;26.70;35.80;;;;;;4927898;28;19931;-72
2022/04/26 16:07:03;;;;;;;;;;;26.70;35.70;;;;;;4927622;28;20338;-72
2022/04/26 16:20:43;;;;;;;;;;;26.70;35.90;;;;;;4927440;29;19977;-72
2022/04/26 16:23:10;;;;;;;;;;;26.60;36.00;;;;;;4924032;29;20264;-72
2022/04/26 16:25:37;;;;;;;;;;;26.60;36.20;;;;;;4926282;29;19926;-72
2022/04/26 16:28:04;;;;;;;;;;;26.50;36.20;;;;;;4927418;28;20334;-72
2022/04/26 16:30:32;;;;;;;;;;;26.50;36.50;;;;;;4927640;29;20033;-72
2022/04/26 16:33:01;;;;;;;;;;;26.50;36.80;;;;;;4927701;28;19927;-73
2022/04/26 16:35:31;;;;;;;;;;;26.50;37.00;;;;;;4927072;28;20018;-71
2022/04/26 16:37:59;;;;;;;;;;;26.50;37.00;;;;;;4926243;29;19926;-72
2022/04/26 16:40:28;;;;;;;;;;;26.50;37.20;;;;;;4927708;29;20362;-73
2022/04/26 16:42:55;;;;;;;;;;;26.40;37.10;;;;;;4926581;29;19927;-73
2022/04/26 16:45:22;;;;;;;;;;;26.40;37.20;;;;;;4927146;29;19980;-72
2022/04/26 16:47:52;;;;;;;;;;;26.40;37.20;;;;;;4925886;29;20363;-72
2022/04/26 16:50:20;;;;;;;;;;;26.30;37.70;;;;;;4927062;29;19927;-72
2022/04/26 16:52:49;;;;;;;;;;;26.40;37.30;;;;;;4923581;28;19950;-72
2022/04/26 16:55:16;;;;;;;;;;;26.30;37.20;;;;;;4930615;29;20295;-73
2022/04/26 16:57:45;;;;;;;;;;;26.30;37.20;;;;;;4924318;29;20476;-74
2022/04/26 17:00:14;;;;;;;;;;;26.30;37.20;;;;;;4946133;29;20298;-73
2022/04/26 17:02:41;;;;;;;;;;;26.20;37.10;;;;;;4945905;29;19927;-72
2022/04/26 17:05:11;;;;;;;;;;;26.20;37.10;;;;;;4946255;28;19926;-72
2022/04/26 17:07:43;;;;;;;;;;;26.20;37.10;;;;;;4945743;29;20235;-72
2022/04/26 17:10:12;;;;;;;;;;;26.20;37.20;;;;;;4946063;28;19980;-71
2022/04/26 17:12:39;;;;;;;;;;;26.20;37.30;;;;;;4945808;29;20378;-71
2022/04/26 17:15:07;;;;;;;;;;;26.10;37.30;;;;;;4945586;29;19926;-71
2022/04/26 17:17:34;;;;;;;;;;;26.10;37.40;;;;;;4945911;28;19931;-72
2022/04/26 17:20:04;;;;;;;;;;;26.10;37.50;;;;;;4945356;28;20099;-72
2022/04/26 17:22:31;;;;;;;;;;;26.10;37.50;;;;;;4945575;29;19927;-72
2022/04/26 17:25:13;;;;;;;;;;;26.10;37.50;;;;;;4945532;29;20378;-72
2022/04/26 17:28:01;;;;;;;;;;;26.10;37.50;;;;;;4941222;28;20031;-71
2022/04/26 17:30:28;;;;;;;;;;;26.00;37.40;;;;;;4946074;29;19938;-72
2022/04/26 17:32:55;;;;;;;;;;;26.10;37.50;;;;;;4945292;28;19926;-72
2022/04/26 17:35:22;;;;;;;;;;;26.00;37.50;;;;;;4945699;28;19966;-71
2022/04/26 17:37:52;;;;;;;;;;;26.00;37.50;;;;;;4945500;28;19927;-72
2022/04/26 17:40:21;;;;;;;;;;;26.00;37.50;;;;;;4945275;29;19973;-72
2022/04/26 17:42:48;;;;;;;;;;;26.00;37.50;;;;;;4945090;28;19927;-72
2022/04/26 17:45:15;;;;;;;;;;;26.00;37.50;;;;;;4945048;29;19931;-72
2022/04/26 17:47:42;;;;;;;;;;;26.00;37.50;;;;;;4945502;28;19949;-72
2022/04/26 17:50:09;;;;;;;;;;;26.00;37.50;;;;;;4947690;28;19934;-71
2022/04/26 17:58:10;;;;;;;;;;;26.00;37.60;;;;;;4947957;29;19926;-71
2022/04/26 18:00:37;;;;;;;;;;;25.90;37.50;;;;;;4945569;28;19927;-72
2022/04/26 18:03:04;;;;;;;;;;;25.90;37.50;;;;;;4948630;29;19980;-72
2022/04/26 18:05:32;;;;;;;;;;;25.90;37.60;;;;;;4948839;28;19927;-72
2022/04/26 18:07:58;;;;;;;;;;;25.90;37.50;;;;;;4948271;29;20227;-72
2022/04/26 18:10:27;;;;;;;;;;;25.90;37.60;;;;;;4948488;29;19926;-72
2022/04/26 18:12:54;;;;;;;;;;;25.80;37.50;;;;;;4948304;28;19981;-72
2022/04/26 18:15:22;;;;;;;;;;;25.80;37.60;;;;;;4947953;29;19931;-72
2022/04/26 18:17:50;;;;;;;;;;;25.80;37.60;;;;;;4948577;29;19927;-71
2022/04/26 18:20:26;;;;;;;;;;;25.80;37.80;;;;;;4948170;28;19931;-72
2022/04/26 18:22:53;;;;;;;;;;;25.80;37.60;;;;;;4947748;28;20017;-72
2022/04/26 18:26:10;;;;;;;;;;;25.70;37.60;;;;;;4948276;28;20405;-72
2022/04/26 18:28:06;;;;;;;;;;;25.70;37.60;;;;;;4947574;29;19953;-72
2022/04/26 18:30:34;;;;;;;;;;;25.70;37.60;;;;;;4943935;29;20279;-72
2022/04/26 18:33:01;;;;;;;;;;;25.70;37.60;;;;;;4947371;28;19974;-72
2022/04/26 18:35:28;;;;;;;;;;;25.70;37.70;;;;;;4947742;28;19934;-72
2022/04/26 18:37:55;;;;;;;;;;;25.70;37.70;;;;;;4931155;29;20383;-73
2022/04/26 18:40:23;;;;;;;;;;;25.70;37.80;;;;;;4947877;29;19926;-72
2022/04/26 18:42:51;;;;;;;;;;;25.60;37.90;;;;;;4948341;29;19931;-72
2022/04/26 18:45:18;;;;;;;;;;;25.60;37.80;;;;;;4947713;28;20329;-71
2022/04/26 18:47:45;;;;;;;;;;;25.60;38.40;;;;;;4947777;28;19927;-72
2022/04/26 18:50:12;;;;;;;;;;;25.50;37.80;;;;;;4948072;29;19933;-71
2022/04/26 18:52:39;;;;;;;;;;;25.50;37.80;;;;;;4947587;28;20359;-71
2022/04/26 18:55:11;;;;;;;;;;;25.50;37.90;;;;;;4947870;29;20325;-71
2022/04/26 18:57:38;;;;;;;;;;;25.40;37.90;;;;;;4947724;28;19984;-72